Time;durP1;ratioP1;P1;durP2;ratioP2;P2;SDS_P1;SDS_P2;PMS_P1;PMS_P2;Temp;Humidity;BMP_temperature;BMP_pressure;BME280_temperature;BME280_humidity;BME280_pressure;Samples;Min_cycle;Max_cycle;Signal;HPM_P1;HPM_P2
2023/02/25 00:00:44;;;;;;;17.70;3.58;;;;;;;1.80;100.00;100674.16;5072867;28;20467;-77
2023/02/25 00:03:10;;;;;;;18.67;3.40;;;;;;;1.81;100.00;100681.16;5072912;28;20029;-77
2023/02/25 00:05:39;;;;;;;19.98;3.58;;;;;;;1.70;100.00;100684.25;5073005;28;20036;-77
2023/02/25 00:08:06;;;;;;;19.30;3.38;;;;;;;1.66;100.00;100679.75;5072988;28;20384;-77
2023/02/25 00:10:32;;;;;;;18.38;3.38;;;;;;;1.59;100.00;100675.16;5072666;28;20036;-77
2023/02/25 00:12:57;;;;;;;20.45;3.65;;;;;;;1.63;100.00;100681.34;5072828;28;20051;-77
2023/02/25 00:15:23;;;;;;;19.58;3.20;;;;;;;1.58;100.00;100678.56;5072754;28;20028;-78
2023/02/25 00:17:48;;;;;;;18.15;3.20;;;;;;;1.51;100.00;100677.44;5068520;28;20111;-77
2023/02/25 00:20:21;;;;;;;19.15;3.17;;;;;;;1.51;100.00;100671.34;5072891;28;20429;-77
2023/02/25 00:22:49;;;;;;;21.35;3.30;;;;;;;1.52;100.00;100667.91;5072467;28;20048;-77
2023/02/25 00:25:15;;;;;;;16.60;3.00;;;;;;;1.45;100.00;100660.69;5072578;28;20024;-77
2023/02/25 00:27:41;;;;;;;18.42;3.38;;;;;;;1.44;100.00;100679.75;5073013;28;20028;-77
2023/02/25 00:30:09;;;;;;;19.73;3.10;;;;;;;1.38;100.00;100673.50;5072587;28;20033;-78
2023/02/25 00:32:35;;;;;;;22.13;3.78;;;;;;;1.39;100.00;100670.03;5072602;28;20502;-77
2023/02/25 00:35:00;;;;;;;19.73;3.33;;;;;;;1.49;100.00;100675.63;5072652;28;20033;-77
2023/02/25 00:37:27;;;;;;;19.77;3.40;;;;;;;1.42;100.00;100668.41;5072402;28;20037;-77
2023/02/25 00:39:52;;;;;;;19.77;3.25;;;;;;;1.33;100.00;100671.53;5072434;28;20166;-77
2023/02/25 00:42:18;;;;;;;20.58;3.55;;;;;;;1.41;100.00;100658.78;5072727;28;20111;-77
2023/02/25 00:44:48;;;;;;;19.45;3.17;;;;;;;1.36;100.00;100669.91;5072660;28;20604;-78
2023/02/25 00:47:15;;;;;;;20.10;3.78;;;;;;;1.31;100.00;100667.97;5076430;28;20033;-77
2023/02/25 00:49:41;;;;;;;23.70;3.63;;;;;;;1.29;100.00;100665.31;5076664;28;20032;-78
2023/02/25 00:52:07;;;;;;;22.45;3.55;;;;;;;1.36;100.00;100663.84;5076496;28;20028;-78
2023/02/25 00:54:33;;;;;;;21.13;3.40;;;;;;;1.37;100.00;100668.22;5076449;28;20032;-77
2023/02/25 00:56:59;;;;;;;21.83;3.60;;;;;;;1.42;100.00;100676.22;5076502;28;20029;-78
2023/02/25 00:59:25;;;;;;;22.05;3.50;;;;;;;1.48;100.00;100673.84;5075149;28;20388;-78
2023/02/25 01:01:50;;;;;;;22.85;3.60;;;;;;;1.60;100.00;100671.69;5076371;28;20033;-78
2023/02/25 01:04:15;;;;;;;22.00;3.33;;;;;;;1.66;100.00;100668.44;5076314;28;20490;-78
2023/02/25 01:06:41;;;;;;;21.63;3.30;;;;;;;1.77;100.00;100674.94;5076157;28;20033;-78
2023/02/25 01:09:12;;;;;;;21.30;3.63;;;;;;;1.62;100.00;100675.25;5076150;28;20437;-78
2023/02/25 01:11:40;;;;;;;22.98;4.03;;;;;;;1.55;100.00;100673.25;5076201;28;20149;-78
2023/02/25 01:14:10;;;;;;;22.38;4.05;;;;;;;1.54;100.00;100671.47;5076113;28;20025;-78
2023/02/25 01:16:36;;;;;;;22.00;3.72;;;;;;;1.46;100.00;100675.50;5075931;28;20031;-77
2023/02/25 01:19:05;;;;;;;21.27;3.45;;;;;;;1.42;100.00;100674.47;5076056;28;20103;-78
2023/02/25 01:21:34;;;;;;;22.85;3.70;;;;;;;1.29;100.00;100678.31;5075742;28;20475;-77
2023/02/25 01:24:07;;;;;;;21.10;3.78;;;;;;;1.33;100.00;100682.81;5075980;28;20028;-77
2023/02/25 01:26:35;;;;;;;20.92;3.90;;;;;;;1.41;100.00;100669.22;5075878;28;20048;-77
2023/02/25 01:29:05;;;;;;;22.13;3.80;;;;;;;1.44;100.00;100671.94;5075962;28;20024;-78
2023/02/25 01:31:30;;;;;;;22.85;3.90;;;;;;;1.53;100.00;100669.69;5075691;28;20038;-77
2023/02/25 01:33:57;;;;;;;21.88;3.65;;;;;;;1.49;100.00;100673.91;5075665;28;20383;-77
2023/02/25 01:36:23;;;;;;;21.00;3.60;;;;;;;1.53;100.00;100675.78;5075765;28;20028;-77
2023/02/25 01:38:49;;;;;;;22.83;3.97;;;;;;;1.61;100.00;100686.50;5075519;28;20102;-77
2023/02/25 01:41:14;;;;;;;21.48;3.80;;;;;;;1.65;100.00;100679.72;5075737;28;20460;-77
2023/02/25 01:43:40;;;;;;;25.35;4.03;;;;;;;1.68;100.00;100677.22;5075604;28;20097;-77
2023/02/25 01:46:06;;;;;;;22.65;3.80;;;;;;;1.69;100.00;100679.88;5075387;28;20081;-77
2023/02/25 01:48:35;;;;;;;22.17;3.70;;;;;;;1.73;100.00;100686.97;5075334;28;20104;-77
2023/02/25 01:51:11;;;;;;;23.98;4.15;;;;;;;1.76;100.00;100690.53;5075535;28;20029;-77
2023/02/25 01:53:45;;;;;;;22.23;3.78;;;;;;;1.79;100.00;100690.63;5075269;28;20028;-78
2023/02/25 01:56:14;;;;;;;22.50;3.70;;;;;;;1.68;100.00;100685.91;5074614;28;20029;-77
2023/02/25 01:58:40;;;;;;;23.20;3.67;;;;;;;1.66;100.00;100686.66;5074596;28;20504;-77
2023/02/25 02:01:13;;;;;;;26.42;4.10;;;;;;;1.66;100.00;100689.28;5075363;28;20111;-78
2023/02/25 02:03:39;;;;;;;23.33;4.20;;;;;;;1.50;100.00;100690.41;5075115;28;20086;-77
2023/02/25 02:06:27;;;;;;;24.67;4.13;;;;;;;1.45;100.00;100697.16;5074965;28;20059;-77
2023/02/25 02:08:53;;;;;;;25.48;3.70;;;;;;;1.31;100.00;100689.72;5071186;28;20020;-78
2023/02/25 02:11:18;;;;;;;22.05;4.18;;;;;;;1.26;100.00;100691.22;5075242;28;20028;-77
2023/02/25 02:13:48;;;;;;;21.33;3.95;;;;;;;1.17;100.00;100694.34;5074862;28;20078;-76
2023/02/25 02:16:13;;;;;;;19.65;3.50;;;;;;;1.16;100.00;100696.91;5074966;28;20024;-77
2023/02/25 02:18:46;;;;;;;22.15;4.10;;;;;;;1.04;100.00;100694.69;5074918;28;20313;-76
2023/02/25 02:21:29;;;;;;;24.52;4.25;;;;;;;0.95;100.00;100695.22;5074959;28;20467;-76
2023/02/25 02:24:06;;;;;;;;;;;;;;;1.01;100.00;100695.44;5071602;28;20048;-77
2023/02/25 02:27:06;;;;;;;26.77;4.47;;;;;;;1.08;100.00;100691.41;5072258;28;19916;-77
2023/02/25 02:30:05;;;;;;;24.25;4.30;;;;;;;1.15;100.00;100687.31;5072473;28;20033;-77
2023/02/25 02:32:42;;;;;;;22.60;4.28;;;;;;;1.12;100.00;100692.41;5071955;28;20032;-78
2023/02/25 02:35:22;;;;;;;21.83;3.92;;;;;;;1.06;100.00;100695.63;5074870;28;20390;-77
2023/02/25 02:38:03;;;;;;;23.15;4.32;;;;;;;1.03;100.00;100691.22;5074609;28;20467;-77
2023/02/25 02:40:31;;;;;;;21.60;4.20;;;;;;;1.04;100.00;100695.56;5071842;28;20138;-77
2023/02/25 02:43:32;;;;;;;23.77;4.25;;;;;;;1.10;100.00;100694.06;5074359;28;20024;-77
2023/02/25 02:46:13;;;;;;;23.42;4.40;;;;;;;1.09;100.00;100690.53;5011227;28;20040;-77
2023/02/25 02:48:55;;;;;;;24.55;4.18;;;;;;;1.06;100.00;100692.16;5072933;28;20016;-77
2023/02/25 02:51:29;;;;;;;22.27;4.13;;;;;;;1.11;100.00;100696.72;5070222;28;20079;-77
2023/02/25 02:53:58;;;;;;;22.85;3.95;;;;;;;1.14;100.00;100695.97;5070666;28;20036;-77
2023/02/25 02:56:27;;;;;;;24.15;4.30;;;;;;;1.18;100.00;100698.75;5070520;28;20530;-77
2023/02/25 02:58:57;;;;;;;23.45;3.88;;;;;;;1.22;100.00;100697.13;5070426;28;20033;-79
2023/02/25 03:01:31;;;;;;;24.50;4.25;;;;;;;1.20;100.00;100704.91;5070419;28;20025;-77
2023/02/25 03:04:01;;;;;;;21.15;3.97;;;;;;;1.36;100.00;100698.56;5070669;28;20090;-77
2023/02/25 03:06:41;;;;;;;23.85;4.10;;;;;;;1.33;100.00;100693.25;5073838;28;20021;-77
2023/02/25 03:09:13;;;;;;;22.15;3.85;;;;;;;1.36;100.00;100697.69;5073874;28;20443;-78
2023/02/25 03:11:38;;;;;;;24.45;4.05;;;;;;;1.45;100.00;100702.38;5073983;28;20017;-77
2023/02/25 03:14:07;;;;;;;24.48;4.03;;;;;;;1.46;100.00;100698.97;5073773;28;20028;-77
2023/02/25 03:16:38;;;;;;;20.17;3.80;;;;;;;1.46;100.00;100704.16;5073634;28;20020;-77
2023/02/25 03:19:14;;;;;;;25.55;4.03;;;;;;;1.54;100.00;100706.25;5073719;28;20039;-78
2023/02/25 03:21:48;;;;;;;22.83;3.75;;;;;;;1.56;100.00;100701.97;5073829;28;20471;-78
2023/02/25 03:24:21;;;;;;;24.10;4.10;;;;;;;1.56;100.00;100698.47;5073401;28;20403;-78
2023/02/25 03:26:49;;;;;;;22.67;4.05;;;;;;;1.59;100.00;100697.69;5073470;28;20020;-78
2023/02/25 03:29:19;;;;;;;23.65;3.92;;;;;;;1.69;100.00;100695.50;5073601;28;20111;-78
2023/02/25 03:31:52;;;;;;;23.80;3.85;;;;;;;1.67;100.00;100694.53;5073539;28;20099;-78
2023/02/25 03:34:22;;;;;;;24.02;4.18;;;;;;;1.65;100.00;100701.44;5073242;28;20020;-77
2023/02/25 03:36:58;;;;;;;25.08;4.25;;;;;;;1.64;100.00;100701.38;5073206;28;20063;-77
2023/02/25 03:39:27;;;;;;;23.27;3.72;;;;;;;1.62;100.00;100703.03;5069658;28;20587;-77
2023/02/25 03:41:55;;;;;;;23.27;4.00;;;;;;;1.57;100.00;100708.06;5069588;28;20025;-78
2023/02/25 03:44:25;;;;;;;23.15;3.88;;;;;;;1.50;100.00;100700.81;5073198;28;20043;-78
2023/02/25 03:46:53;;;;;;;23.75;4.32;;;;;;;1.44;100.00;100705.81;5069104;28;20086;-77
2023/02/25 03:49:26;;;;;;;23.02;4.13;;;;;;;1.30;100.00;100703.56;5073271;28;20024;-77
2023/02/25 03:51:54;;;;;;;25.13;4.20;;;;;;;1.12;100.00;100713.22;5068988;28;20025;-77
2023/02/25 03:54:19;;;;;;;21.75;4.05;;;;;;;1.01;100.00;100713.69;5072911;28;20064;-77
2023/02/25 03:56:47;;;;;;;24.33;4.25;;;;;;;0.98;100.00;100716.16;5073116;28;20055;-77
2023/02/25 03:59:13;;;;;;;25.83;4.15;;;;;;;1.02;100.00;100714.56;5073047;28;20043;-78
2023/02/25 04:01:41;;;;;;;24.73;4.32;;;;;;;1.00;100.00;100705.81;5072821;28;20021;-77
2023/02/25 04:04:06;;;;;;;21.70;3.72;;;;;;;1.11;100.00;100721.88;5071825;28;20029;-77
2023/02/25 04:06:32;;;;;;;22.85;3.95;;;;;;;1.14;100.00;100709.00;5072849;28;20025;-77
2023/02/25 04:08:57;;;;;;;23.08;4.10;;;;;;;1.17;100.00;100714.31;5072856;28;20028;-79
2023/02/25 04:11:23;;;;;;;26.38;4.40;;;;;;;1.18;100.00;100718.66;5072977;28;20371;-77
2023/02/25 04:13:49;;;;;;;23.83;4.43;;;;;;;1.15;100.00;100715.94;5072730;28;20031;-77
2023/02/25 04:16:14;;;;;;;23.52;4.18;;;;;;;1.17;100.00;100712.59;5072692;28;20503;-77
2023/02/25 04:18:40;;;;;;;25.27;4.55;;;;;;;1.17;100.00;100719.53;5072728;28;20128;-78
2023/02/25 04:21:06;;;;;;;25.10;4.57;;;;;;;1.25;100.00;100718.09;5072124;28;20024;-77
2023/02/25 04:23:33;;;;;;;24.63;4.40;;;;;;;1.24;100.00;100721.53;5072524;28;20506;-77
2023/02/25 04:25:58;;;;;;;23.50;4.20;;;;;;;1.23;100.00;100724.97;5072912;28;20025;-77
2023/02/25 04:28:24;;;;;;;23.33;4.57;;;;;;;1.28;100.00;100726.06;5072645;28;20111;-78
2023/02/25 04:30:49;;;;;;;24.88;4.10;;;;;;;1.28;100.00;100718.25;5072780;28;20033;-77
2023/02/25 04:33:14;;;;;;;26.00;4.47;;;;;;;1.33;100.00;100721.03;5072644;28;20033;-79
2023/02/25 04:35:40;;;;;;;24.85;4.45;;;;;;;1.30;100.00;100724.38;5072578;28;20040;-77
2023/02/25 04:38:05;;;;;;;25.77;4.32;;;;;;;1.34;100.00;100723.69;5072402;28;20025;-77
2023/02/25 04:40:31;;;;;;;24.88;4.07;;;;;;;1.33;100.00;100729.72;5072624;28;20434;-77
2023/02/25 04:42:56;;;;;;;25.00;4.80;;;;;;;1.32;100.00;100722.72;5072399;28;20055;-77
2023/02/25 04:45:24;;;;;;;24.10;3.97;;;;;;;1.34;100.00;100731.50;5068657;28;20491;-78
2023/02/25 04:47:56;;;;;;;25.83;4.53;;;;;;;1.25;100.00;100731.13;5072546;28;20029;-77
2023/02/25 04:50:22;;;;;;;23.75;4.15;;;;;;;1.21;100.00;100737.94;5068578;28;20443;-77
2023/02/25 04:52:48;;;;;;;23.27;4.32;;;;;;;1.09;100.00;100734.81;5072321;28;20103;-77
2023/02/25 04:55:13;;;;;;;23.15;4.20;;;;;;;0.97;100.00;100747.34;5072524;28;20037;-78
2023/02/25 04:57:41;;;;;;;24.45;4.28;;;;;;;0.85;100.00;100746.00;5072200;28;20035;-77
2023/02/25 05:00:18;;;;;;;25.13;4.30;;;;;;;0.83;100.00;100746.75;5072326;28;20027;-76
2023/02/25 05:02:45;;;;;;;25.85;4.28;;;;;;;0.96;100.00;100745.53;5072440;28;20028;-77
2023/02/25 05:05:10;;;;;;;24.90;4.38;;;;;;;0.97;100.00;100748.22;5072283;28;20492;-77
2023/02/25 05:07:36;;;;;;;24.13;4.22;;;;;;;0.98;100.00;100730.91;5072103;28;20090;-77
2023/02/25 05:10:01;;;;;;;24.60;4.32;;;;;;;1.02;100.00;100735.38;5072410;28;20465;-77
2023/02/25 05:12:26;;;;;;;24.55;4.43;;;;;;;0.96;100.00;100729.94;5072131;28;20089;-77
2023/02/25 05:14:52;;;;;;;22.42;4.25;;;;;;;0.96;100.00;100728.25;5068065;28;20112;-77
2023/02/25 05:17:17;;;;;;;25.00;4.32;;;;;;;0.91;100.00;100734.06;5072290;28;20494;-77
2023/02/25 05:19:43;;;;;;;25.73;4.03;;;;;;;0.93;100.00;100735.00;5072072;28;20029;-77
2023/02/25 05:22:09;;;;;;;25.65;4.32;;;;;;;0.90;100.00;100738.38;5072124;28;20040;-77
2023/02/25 05:24:34;;;;;;;25.35;4.35;;;;;;;0.76;100.00;100736.91;5071978;28;20041;-77
2023/02/25 05:27:07;;;;;;;25.88;4.50;;;;;;;0.69;100.00;100741.84;5072015;28;20091;-77
2023/02/25 05:29:32;;;;;;;26.65;4.20;;;;;;;0.69;100.00;100731.44;5071949;28;20418;-77
2023/02/25 05:31:58;;;;;;;24.95;4.65;;;;;;;0.73;100.00;100735.06;5074316;28;20070;-77
2023/02/25 05:34:23;;;;;;;22.95;4.47;;;;;;;0.64;100.00;100735.56;5075833;28;20039;-77
2023/02/25 05:36:48;;;;;;;24.15;4.35;;;;;;;0.61;100.00;100735.44;5075557;28;20020;-77
2023/02/25 05:39:14;;;;;;;26.42;4.45;;;;;;;0.62;100.00;100732.00;5075686;28;20029;-78
2023/02/25 05:41:39;;;;;;;24.13;4.38;;;;;;;0.55;100.00;100742.09;5075784;28;20093;-77
2023/02/25 05:44:05;;;;;;;24.48;4.35;;;;;;;0.64;100.00;100732.97;5075464;28;20103;-76
2023/02/25 05:46:30;;;;;;;20.63;3.92;;;;;;;0.61;100.00;100734.53;5075647;28;20103;-77
2023/02/25 05:48:56;;;;;;;24.92;4.38;;;;;;;0.58;100.00;100743.09;5075356;28;20039;-77
2023/02/25 05:51:22;;;;;;;24.20;4.22;;;;;;;0.64;100.00;100742.47;5075597;28;20038;-77
2023/02/25 05:53:48;;;;;;;24.85;4.05;;;;;;;0.55;100.00;100735.16;5075378;28;20052;-77
2023/02/25 05:56:19;;;;;;;23.30;3.90;;;;;;;0.49;100.00;100743.59;5075305;28;20021;-77
2023/02/25 05:58:48;;;;;;;23.90;4.15;;;;;;;0.49;100.00;100743.59;5075125;28;20459;-76
2023/02/25 06:01:16;;;;;;;23.17;4.03;;;;;;;0.53;100.00;100742.03;5075405;28;20471;-77
2023/02/25 06:03:44;;;;;;;22.27;3.95;;;;;;;0.45;100.00;100752.09;5075049;28;20040;-77
2023/02/25 06:06:14;;;;;;;20.73;3.70;;;;;;;0.43;100.00;100758.06;5075293;28;20032;-77
2023/02/25 06:08:43;;;;;;;23.20;4.35;;;;;;;0.47;100.00;100770.38;5075309;28;20366;-77
2023/02/25 06:11:09;;;;;;;21.83;3.78;;;;;;;0.33;100.00;100770.63;5074968;28;20170;-77
2023/02/25 06:13:34;;;;;;;20.75;3.60;;;;;;;0.37;100.00;100769.06;5074968;28;20036;-77
2023/02/25 06:16:04;;;;;;;23.48;4.05;;;;;;;0.42;100.00;100764.06;5075082;28;20033;-77
2023/02/25 06:18:35;;;;;;;22.30;3.90;;;;;;;0.49;100.00;100776.53;5074754;28;20037;-78
2023/02/25 06:21:06;;;;;;;22.73;3.63;;;;;;;0.46;100.00;100769.47;5074816;28;20113;-77
2023/02/25 06:23:33;;;;;;;23.60;3.90;;;;;;;0.37;100.00;100763.88;5074609;28;20381;-77
2023/02/25 06:25:59;;;;;;;20.23;3.53;;;;;;;0.39;100.00;100753.53;5074971;28;20103;-77
2023/02/25 06:28:24;;;;;;;23.65;3.85;;;;;;;0.46;100.00;100760.78;5074828;28;20035;-77
2023/02/25 06:30:49;;;;;;;20.88;3.83;;;;;;;0.37;100.00;100763.88;5074701;28;20040;-77
2023/02/25 06:33:14;;;;;;;24.27;3.88;;;;;;;0.45;100.00;100766.81;5074819;28;20025;-77
2023/02/25 06:35:40;;;;;;;23.27;4.13;;;;;;;0.36;100.00;100763.81;5074535;28;20552;-77
2023/02/25 06:38:05;;;;;;;22.70;3.83;;;;;;;0.43;100.00;100781.47;5074556;28;20471;-78
2023/02/25 06:40:34;;;;;;;22.48;4.15;;;;;;;0.43;100.00;100781.47;5074441;28;20028;-77
2023/02/25 06:42:59;;;;;;;23.60;4.00;;;;;;;0.42;100.00;100777.06;5073815;28;20051;-77
2023/02/25 06:45:24;;;;;;;23.48;3.90;;;;;;;0.44;100.00;100775.44;5074593;28;20468;-77
2023/02/25 06:47:50;;;;;;;25.02;4.10;;;;;;;0.49;100.00;100777.41;5074276;28;20146;-77
2023/02/25 06:50:16;;;;;;;21.90;3.55;;;;;;;0.49;100.00;100784.34;5074241;28;20478;-77
2023/02/25 06:52:41;;;;;;;23.23;4.03;;;;;;;0.45;100.00;100777.22;5074465;28;20497;-77
2023/02/25 06:55:07;;;;;;;23.20;3.92;;;;;;;0.46;100.00;100784.19;5072877;28;20127;-77
2023/02/25 06:57:33;;;;;;;24.27;4.18;;;;;;;0.45;100.00;100782.41;5074019;28;20115;-77
2023/02/25 06:59:59;;;;;;;26.23;3.95;;;;;;;0.49;100.00;100784.34;5074300;28;20105;-77
2023/02/25 07:02:24;;;;;;;22.05;4.07;;;;;;;0.50;100.00;100793.91;5074037;28;20035;-77
2023/02/25 07:04:52;;;;;;;22.42;3.72;;;;;;;0.58;100.00;100797.72;5073923;28;20089;-78
2023/02/25 07:07:18;;;;;;;22.10;3.72;;;;;;;0.72;100.00;100807.88;5074085;28;20052;-77
2023/02/25 07:09:43;;;;;;;22.38;3.92;;;;;;;0.76;100.00;100807.16;5073767;28;20055;-77
2023/02/25 07:12:08;;;;;;;21.17;3.70;;;;;;;0.82;100.00;100800.53;5073752;28;20033;-78
2023/02/25 07:14:34;;;;;;;23.45;4.40;;;;;;;0.78;100.00;100806.41;5074297;28;20024;-79
2023/02/25 07:16:59;;;;;;;24.20;4.18;;;;;;;0.82;100.00;100805.72;5073582;28;20035;-79
2023/02/25 07:19:24;;;;;;;21.88;3.92;;;;;;;0.76;100.00;100804.56;5073693;28;20070;-77
2023/02/25 07:21:50;;;;;;;21.48;3.83;;;;;;;0.69;100.00;100819.03;5074067;28;20120;-78
2023/02/25 07:24:16;;;;;;;22.65;3.88;;;;;;;0.70;100.00;100810.41;5073317;28;20051;-77
2023/02/25 07:26:41;;;;;;;23.52;3.80;;;;;;;0.71;100.00;100824.31;5073679;28;20032;-78
2023/02/25 07:29:07;;;;;;;24.85;4.10;;;;;;;0.71;100.00;100829.50;5073511;28;20036;-79
2023/02/25 07:31:32;;;;;;;22.73;4.18;;;;;;;0.74;100.00;100830.53;5073452;28;20380;-77
2023/02/25 07:34:03;;;;;;;24.15;4.35;;;;;;;0.77;100.00;100837.59;5073699;28;20027;-78
2023/02/25 07:36:34;;;;;;;21.83;4.22;;;;;;;0.78;100.00;100829.84;5069922;28;20158;-78
2023/02/25 07:39:00;;;;;;;20.83;4.03;;;;;;;0.74;100.00;100832.25;5069962;28;20544;-78
2023/02/25 07:41:27;;;;;;;21.92;4.00;;;;;;;0.76;100.00;100833.19;5073314;28;20048;-78
2023/02/25 07:43:53;;;;;;;24.45;3.95;;;;;;;0.86;100.00;100835.41;5073638;28;20031;-77
2023/02/25 07:46:18;;;;;;;23.35;4.15;;;;;;;0.92;100.00;100840.88;5073144;28;20032;-78
2023/02/25 07:48:44;;;;;;;21.52;3.97;;;;;;;0.88;100.00;100849.34;5073090;28;20131;-78
2023/02/25 07:51:15;;;;;;;24.08;4.20;;;;;;;0.95;100.00;100850.53;5073260;28;20112;-78
2023/02/25 07:53:41;;;;;;;23.30;4.32;;;;;;;0.97;100.00;100843.66;5073137;28;20024;-77
2023/02/25 07:56:07;;;;;;;21.45;3.90;;;;;;;1.02;100.00;100843.03;5072173;28;20035;-77
2023/02/25 07:58:33;;;;;;;20.70;3.88;;;;;;;1.02;100.00;100850.84;5073105;28;20032;-78
2023/02/25 08:00:59;;;;;;;24.02;4.15;;;;;;;1.19;100.00;100845.47;5073243;28;20031;-78
2023/02/25 08:03:24;;;;;;;21.27;3.95;;;;;;;1.28;100.00;100844.97;5072940;28;20375;-77
2023/02/25 08:05:52;;;;;;;23.50;4.45;;;;;;;1.33;100.00;100846.06;5073272;28;20544;-78
2023/02/25 08:08:18;;;;;;;22.55;4.03;;;;;;;1.31;100.00;100851.22;5072807;28;20107;-78
2023/02/25 08:10:43;;;;;;;23.33;4.30;;;;;;;1.36;100.00;100854.00;5072911;28;20436;-78
2023/02/25 08:13:08;;;;;;;24.88;4.30;;;;;;;1.39;100.00;100861.94;5072943;28;20035;-77
2023/02/25 08:15:34;;;;;;;23.40;4.18;;;;;;;1.39;100.00;100864.53;5072879;28;20490;-77
2023/02/25 08:17:59;;;;;;;21.60;4.05;;;;;;;1.47;100.00;100868.38;5072831;28;20032;-78
2023/02/25 08:20:25;;;;;;;22.70;4.10;;;;;;;1.65;100.00;100864.75;5072705;28;20085;-77
2023/02/25 08:22:50;;;;;;;22.85;4.05;;;;;;;1.86;100.00;100857.75;5072512;28;20047;-78
2023/02/25 08:25:15;;;;;;;23.63;4.32;;;;;;;2.19;100.00;100864.25;5072750;28;20124;-78
2023/02/25 08:27:42;;;;;;;24.20;4.38;;;;;;;2.50;100.00;100857.59;5072579;28;20033;-78
2023/02/25 08:30:09;;;;;;;24.17;4.40;;;;;;;2.70;100.00;100859.22;5072659;28;20035;-78
2023/02/25 08:32:35;;;;;;;22.48;4.20;;;;;;;2.79;100.00;100871.72;5072714;28;20029;-78
2023/02/25 08:35:01;;;;;;;22.75;4.13;;;;;;;2.88;100.00;100881.59;5072530;28;20036;-78
2023/02/25 08:37:27;;;;;;;24.98;4.90;;;;;;;2.94;100.00;100877.50;5072512;28;20021;-77
2023/02/25 08:39:55;;;;;;;24.63;4.35;;;;;;;2.97;100.00;100871.47;5072657;28;20032;-78
2023/02/25 08:42:22;;;;;;;22.48;4.20;;;;;;;3.08;100.00;100871.88;5072466;28;20037;-77
2023/02/25 08:44:48;;;;;;;24.95;4.65;;;;;;;3.25;100.00;100867.25;5072693;28;20028;-78
2023/02/25 08:47:13;;;;;;;24.00;4.10;;;;;;;3.42;100.00;100867.81;5072584;28;20133;-78
2023/02/25 08:49:39;;;;;;;24.45;4.53;;;;;;;3.62;100.00;100863.25;5072669;28;20101;-78
2023/02/25 08:52:06;;;;;;;26.00;4.32;;;;;;;3.87;100.00;100882.34;5072380;28;20031;-78
2023/02/25 08:54:32;;;;;;;26.42;5.05;;;;;;;4.00;100.00;100887.13;5072592;28;20037;-77
2023/02/25 08:56:59;;;;;;;22.58;4.10;;;;;;;4.05;100.00;100884.66;5072419;28;20070;-78
2023/02/25 08:59:24;;;;;;;21.52;3.97;;;;;;;4.04;100.00;100886.41;5072184;28;20032;-78
2023/02/25 09:01:51;;;;;;;20.80;3.72;;;;;;;4.06;100.00;100882.09;5072496;28;20035;-77
2023/02/25 09:04:16;;;;;;;24.23;4.30;;;;;;;4.15;100.00;100887.63;5072420;28;20392;-78
2023/02/25 09:06:42;;;;;;;24.50;4.32;;;;;;;4.21;100.00;100889.53;5074115;28;20028;-78
2023/02/25 09:09:08;;;;;;;22.63;4.03;;;;;;;4.29;100.00;100890.66;5076440;28;20029;-78
2023/02/25 09:11:34;;;;;;;22.45;4.05;;;;;;;4.38;100.00;100884.81;5074908;28;20033;-78
2023/02/25 09:13:59;;;;;;;23.95;4.18;;;;;;;4.36;100.00;100899.59;5076048;28;20038;-78
2023/02/25 09:16:27;;;;;;;27.15;4.50;;;;;;;4.37;100.00;100898.75;5072128;28;20025;-77
2023/02/25 09:18:52;;;;;;;24.27;4.00;;;;;;;4.35;100.00;100890.84;5075930;28;20106;-78
2023/02/25 09:21:19;;;;;;;23.83;4.60;;;;;;;4.33;100.00;100887.28;5075020;28;20483;-78
2023/02/25 09:23:45;;;;;;;24.92;4.38;;;;;;;4.37;100.00;100901.38;5076151;28;20045;-78
2023/02/25 09:26:11;;;;;;;21.55;4.32;;;;;;;4.35;100.00;100909.19;5075857;28;20491;-78
2023/02/25 09:28:37;;;;;;;22.67;4.07;;;;;;;4.33;100.00;100902.13;5076041;28;20476;-78
2023/02/25 09:31:02;;;;;;;22.98;4.00;;;;;;;4.39;100.00;100907.53;5075711;28;20066;-78
2023/02/25 09:33:31;;;;;;;21.88;4.00;;;;;;;4.54;100.00;100913.25;5075729;28;20422;-78
2023/02/25 09:36:07;;;;;;;23.08;4.30;;;;;;;4.77;100.00;100926.13;5071961;28;20025;-78
2023/02/25 09:38:33;;;;;;;23.10;3.53;;;;;;;5.29;100.00;100920.59;5072910;28;20142;-78
2023/02/25 09:40:59;;;;;;;24.38;4.13;;;;;;;5.34;100.00;100924.22;5075650;28;20029;-78
2023/02/25 09:43:28;;;;;;;21.85;3.88;;;;;;;5.30;100.00;100919.72;5075527;28;20031;-78
2023/02/25 09:46:05;;;;;;;20.75;3.70;;;;;;;5.50;100.00;100921.13;5075751;28;20102;-78
2023/02/25 09:48:36;;;;;;;19.23;3.40;;;;;;;5.91;100.00;100926.56;5072226;28;20029;-78
2023/02/25 09:51:21;;;;;;;21.17;3.80;;;;;;;6.49;100.00;100912.16;5075438;28;20027;-78
2023/02/25 09:54:17;;;;;;;21.15;3.38;;;;;;;6.79;100.00;100927.72;5075506;28;20038;-78
2023/02/25 09:56:43;;;;;;;21.17;3.65;;;;;;;6.74;100.00;100931.97;5073724;28;20021;-78
2023/02/25 09:59:20;;;;;;;20.38;3.42;;;;;;;6.49;100.00;100947.19;5075199;28;20472;-78
2023/02/25 10:02:07;;;;;;;19.13;3.33;;;;;;;6.34;100.00;100942.47;5075224;28;20032;-78
2023/02/25 10:04:50;;;;;;;19.13;3.17;;;;;;;6.21;100.00;100940.44;5072048;28;20029;-78
2023/02/25 10:07:32;;;;;;;20.73;3.97;;;;;;;6.05;100.00;100947.91;5075213;28;20134;-78
2023/02/25 10:10:50;;;;;;;19.45;3.40;;;;;;;6.06;100.00;100949.69;5071389;28;20456;-78
2023/02/25 10:13:33;;;;;;;18.40;3.17;;;;;;;6.09;100.00;100954.16;5013465;28;20034;-78
2023/02/25 10:16:17;;;;;;;20.15;3.40;;;;;;;6.06;100.00;100954.06;5013546;28;20129;-78
2023/02/25 10:19:08;;;;;;;22.08;3.70;;;;;;;6.06;100.00;100965.44;5058501;28;20063;-78
2023/02/25 10:21:40;;;;;;;21.00;3.67;;;;;;;5.85;100.00;100962.25;5072177;28;20108;-78
2023/02/25 10:24:24;;;;;;;21.75;3.58;;;;;;;5.65;100.00;100977.47;5074753;28;20384;-78
2023/02/25 10:26:58;;;;;;;21.17;3.63;;;;;;;5.47;100.00;100972.63;5074740;28;20024;-78
2023/02/25 10:29:30;;;;;;;19.65;3.53;;;;;;;5.58;100.00;100956.31;5074743;28;20040;-78
2023/02/25 10:31:59;;;;;;;18.77;3.47;;;;;;;5.79;100.00;100964.72;5069338;28;20547;-78
2023/02/25 10:34:27;;;;;;;18.17;3.20;;;;;;;6.20;100.00;100967.53;5074969;28;20074;-78
2023/02/25 10:36:56;;;;;;;19.77;3.35;;;;;;;6.70;100.00;100975.69;5074455;28;20487;-78
2023/02/25 10:39:23;;;;;;;20.65;3.30;;;;;;;7.04;100.00;100981.66;5074519;28;20062;-78
2023/02/25 10:41:49;;;;;;;19.48;3.40;;;;;;;7.39;100.00;100973.59;5074595;28;20032;-78
2023/02/25 10:44:15;;;;;;;19.42;3.20;;;;;;;8.26;100.00;100978.66;5074501;28;20039;-78
2023/02/25 10:47:05;;;;;;;17.02;3.13;;;;;;;8.76;100.00;100982.94;5074540;28;20028;-78
2023/02/25 10:49:36;;;;;;;17.20;3.05;;;;;;;9.48;100.00;100990.88;5066737;28;20040;-77
2023/02/25 10:52:17;;;;;;;15.25;2.80;;;;;;;9.57;100.00;100990.97;5071323;28;20446;-78
2023/02/25 10:54:52;;;;;;;17.25;2.90;;;;;;;9.59;100.00;101002.41;5074425;28;20016;-78
2023/02/25 10:57:27;;;;;;;18.45;2.88;;;;;;;10.22;100.00;101006.53;5074306;28;20506;-78
2023/02/25 11:00:00;;;;;;;17.52;2.80;;;;;;;11.58;100.00;100999.41;5074247;28;20032;-78
2023/02/25 11:02:30;;;;;;;18.45;2.85;;;;;;;12.73;100.00;100994.16;5069985;28;20125;-79
2023/02/25 11:04:56;;;;;;;15.30;2.88;;;;;;;13.34;100.00;100986.91;5073859;28;20025;-76
2023/02/25 11:07:38;;;;;;;16.58;2.90;;;;;;;14.39;84.34;100987.97;5074203;28;20024;-76
2023/02/25 11:10:25;;;;;;;15.82;2.80;;;;;;;13.86;60.54;100980.41;5071102;28;20105;-76
2023/02/25 11:12:57;;;;;;;16.08;3.00;;;;;;;12.36;66.86;100995.97;5074045;28;20055;-76
2023/02/25 11:15:25;;;;;;;17.48;2.70;;;;;;;11.13;65.43;100993.94;5073785;28;20530;-75
2023/02/25 11:17:57;;;;;;;15.82;2.80;;;;;;;9.92;70.21;100995.72;5073591;28;20028;-75
2023/02/25 11:20:28;;;;;;;15.77;3.05;;;;;;;9.34;77.42;101003.91;5073883;28;20456;-76
2023/02/25 11:22:55;;;;;;;14.60;3.00;;;;;;;9.00;79.82;100997.31;5073475;28;20503;-76
2023/02/25 11:25:42;;;;;;;15.95;2.95;;;;;;;9.10;84.74;101003.59;5073432;28;20423;-75